createdAt,value
2023-02-13T00:00:25.129Z,18.33
2023-02-13T00:02:52.594Z,17.45
2023-02-13T00:05:28.566Z,18.52
2023-02-13T00:07:55.325Z,16.67
2023-02-13T00:10:22.244Z,17.75
2023-02-13T00:12:49.234Z,17.92
2023-02-13T00:15:16.165Z,17.77
2023-02-13T00:17:43.269Z,17.67
2023-02-13T00:20:11.789Z,17.40
2023-02-13T00:22:39.099Z,18.13
2023-02-13T00:25:06.310Z,18.10
2023-02-13T00:27:33.364Z,17.58
2023-02-13T00:30:00.418Z,18.00
2023-02-13T00:32:27.334Z,16.92
2023-02-13T00:34:55.812Z,18.10
2023-02-13T00:37:23.318Z,17.90
2023-02-13T00:39:52.782Z,18.50
2023-02-13T00:42:20.637Z,18.65
2023-02-13T00:44:47.589Z,17.55
2023-02-13T00:47:15.065Z,18.20
2023-02-13T00:49:42.014Z,17.35
2023-02-13T00:52:08.777Z,17.77
2023-02-13T00:54:35.992Z,17.77
2023-02-13T00:57:02.910Z,17.30
2023-02-13T00:59:29.742Z,17.67
2023-02-13T01:01:57.143Z,16.73
2023-02-13T01:04:24.192Z,17.77
2023-02-13T01:06:51.054Z,19.05
2023-02-13T01:09:18.085Z,18.50
2023-02-13T01:11:45.332Z,18.92
2023-02-13T01:14:12.158Z,19.10
2023-02-13T01:16:40.331Z,16.90
2023-02-13T01:19:07.257Z,17.38
2023-02-13T01:21:34.121Z,17.10
2023-02-13T01:24:03.458Z,17.08
2023-02-13T01:26:30.512Z,17.65
2023-02-13T01:29:00.959Z,17.60
2023-02-13T01:31:27.866Z,17.42
2023-02-13T01:33:58.480Z,17.77
2023-02-13T01:36:25.723Z,18.58
2023-02-13T01:38:54.415Z,17.27
2023-02-13T01:41:21.437Z,18.35
2023-02-13T01:43:48.469Z,17.95
2023-02-13T01:46:17.714Z,16.40
2023-02-13T01:48:45.321Z,17.23
2023-02-13T01:51:15.231Z,17.70
2023-02-13T01:53:45.251Z,16.27
2023-02-13T01:56:17.044Z,16.85
2023-02-13T01:58:46.059Z,16.65
2023-02-13T02:01:13.775Z,17.25
2023-02-13T02:03:49.508Z,17.77
2023-02-13T02:06:27.603Z,15.80
2023-02-13T02:08:55.827Z,17.92
2023-02-13T02:11:27.119Z,17.70
2023-02-13T02:13:54.432Z,17.60
2023-02-13T02:16:31.805Z,16.77
2023-02-13T02:18:59.296Z,17.05
2023-02-13T02:21:29.551Z,18.10
2023-02-13T02:23:56.568Z,17.00
2023-02-13T02:26:52.704Z,17.20
2023-02-13T02:29:25.910Z,17.85
2023-02-13T02:31:55.823Z,18.75
2023-02-13T02:34:28.942Z,18.35
2023-02-13T02:37:05.441Z,17.38
2023-02-13T02:39:39.528Z,18.63
2023-02-13T02:42:07.419Z,18.40
2023-02-13T02:44:55.167Z,18.50
2023-02-13T02:47:44.030Z,17.55
2023-02-13T02:50:13.986Z,17.98
2023-02-13T02:52:55.629Z,18.67
2023-02-13T02:55:36.485Z,20.63
2023-02-13T02:58:42.279Z,18.60
2023-02-13T03:01:31.673Z,17.67
2023-02-13T03:04:19.271Z,19.92
2023-02-13T03:06:46.686Z,17.27
2023-02-13T03:09:40.545Z,18.42
2023-02-13T03:12:27.070Z,17.63
2023-02-13T03:14:53.992Z,19.30
2023-02-13T03:17:39.642Z,18.55
2023-02-13T03:20:25.250Z,18.93
2023-02-13T03:23:02.750Z,18.10
2023-02-13T03:25:34.492Z,19.27
2023-02-13T03:28:37.163Z,19.65
2023-02-13T03:31:04.099Z,18.42
2023-02-13T03:33:37.790Z,19.42
2023-02-13T03:36:42.468Z,20.60
2023-02-13T03:39:09.374Z,19.63
2023-02-13T03:41:45.837Z,19.50
2023-02-13T03:44:23.358Z,19.48
2023-02-13T03:46:51.110Z,20.20
2023-02-13T03:49:40.344Z,19.15
2023-02-13T03:52:17.362Z,18.75
2023-02-13T03:55:15.019Z,20.90
2023-02-13T03:58:02.391Z,19.13
2023-02-13T04:00:31.459Z,20.17
2023-02-13T04:03:11.331Z,19.42
2023-02-13T04:05:41.692Z,19.67
2023-02-13T04:08:08.591Z,20.33
2023-02-13T04:10:37.174Z,20.60
2023-02-13T04:13:10.953Z,21.45
2023-02-13T04:15:50.275Z,21.17
2023-02-13T04:18:17.316Z,21.40
2023-02-13T04:20:45.168Z,20.88
2023-02-13T04:23:12.352Z,20.70
2023-02-13T04:25:41.021Z,20.48
2023-02-13T04:28:08.750Z,21.38
2023-02-13T04:30:35.878Z,21.35
2023-02-13T04:33:03.101Z,23.42
2023-02-13T04:35:30.359Z,20.42
2023-02-13T04:37:57.388Z,21.50
2023-02-13T04:40:24.309Z,20.98
2023-02-13T04:42:51.262Z,22.23
2023-02-13T04:45:18.783Z,22.05
2023-02-13T04:47:55.956Z,22.67
2023-02-13T04:50:23.899Z,22.35
2023-02-13T04:52:53.201Z,23.55
2023-02-13T04:55:20.157Z,22.00
2023-02-13T04:57:48.512Z,22.50
2023-02-13T05:00:15.753Z,22.92
2023-02-13T05:02:42.628Z,22.55
2023-02-13T05:05:12.114Z,23.73
2023-02-13T05:07:39.122Z,23.23
2023-02-13T05:10:06.322Z,23.77
2023-02-13T05:12:33.180Z,22.95
2023-02-13T05:15:00.365Z,24.08
2023-02-13T05:17:28.342Z,24.55
2023-02-13T05:19:55.797Z,22.98
2023-02-13T05:22:41.588Z,24.35
2023-02-13T05:25:08.745Z,26.00
2023-02-13T05:27:35.730Z,24.58
2023-02-13T05:30:02.618Z,25.10
2023-02-13T05:32:30.480Z,25.25
2023-02-13T05:34:57.364Z,25.13
2023-02-13T05:37:24.317Z,26.48
2023-02-13T05:39:51.292Z,27.33
2023-02-13T05:42:18.132Z,27.65
2023-02-13T05:44:45.280Z,27.88
2023-02-13T05:47:12.436Z,27.20
2023-02-13T05:49:39.238Z,24.42
2023-02-13T05:52:06.489Z,27.63
2023-02-13T05:54:33.372Z,27.55
2023-02-13T05:57:00.126Z,27.58
2023-02-13T05:59:27.236Z,26.25
2023-02-13T06:01:55.026Z,27.52
2023-02-13T06:04:21.994Z,26.33
2023-02-13T06:06:48.694Z,26.55
2023-02-13T06:09:15.624Z,26.00
2023-02-13T06:11:42.409Z,27.92
2023-02-13T06:14:11.396Z,27.98
2023-02-13T06:16:38.362Z,28.88
2023-02-13T06:19:05.247Z,28.10
2023-02-13T06:21:38.039Z,26.20
2023-02-13T06:24:05.791Z,27.60
2023-02-13T06:26:33.008Z,28.27
2023-02-13T06:28:59.844Z,27.80
2023-02-13T06:31:27.099Z,27.85
2023-02-13T06:33:54.188Z,29.15
2023-02-13T06:36:21.191Z,26.50
2023-02-13T06:38:48.064Z,27.75
2023-02-13T06:41:15.472Z,28.27
2023-02-13T06:43:42.485Z,28.98
2023-02-13T06:46:09.649Z,29.15
2023-02-13T06:48:36.814Z,27.73
2023-02-13T06:51:03.848Z,29.95
2023-02-13T06:53:31.054Z,30.08
2023-02-13T06:55:58.092Z,30.98
2023-02-13T06:58:25.750Z,29.92
2023-02-13T07:00:53.271Z,28.52
2023-02-13T07:03:20.070Z,31.05
2023-02-13T07:05:46.877Z,30.27
2023-02-13T07:08:13.864Z,27.98
2023-02-13T07:10:41.377Z,28.10
2023-02-13T07:13:08.865Z,30.48
2023-02-13T07:15:37.723Z,30.40
2023-02-13T07:18:05.303Z,28.20
2023-02-13T07:20:32.969Z,29.60
2023-02-13T07:23:00.459Z,30.38
2023-02-13T07:25:27.696Z,30.23
2023-02-13T07:27:54.619Z,27.65
2023-02-13T07:30:21.625Z,28.63
2023-02-13T07:32:48.807Z,27.77
2023-02-13T07:35:15.866Z,28.90
2023-02-13T07:37:42.839Z,27.95
2023-02-13T07:40:10.116Z,29.88
2023-02-13T07:42:36.916Z,29.17
2023-02-13T07:45:05.807Z,28.63
2023-02-13T07:47:33.786Z,27.65
2023-02-13T07:50:00.603Z,28.17
2023-02-13T07:52:27.598Z,28.27
2023-02-13T07:54:54.627Z,26.27
2023-02-13T07:57:21.488Z,31.02
2023-02-13T07:59:48.564Z,29.30
2023-02-13T08:02:15.871Z,30.30
2023-02-13T08:04:46.828Z,30.42
2023-02-13T08:07:14.740Z,29.95
2023-02-13T08:10:00.361Z,30.27
2023-02-13T08:12:27.205Z,31.05
2023-02-13T08:14:53.960Z,32.20
2023-02-13T08:17:20.868Z,32.72
2023-02-13T08:19:47.844Z,32.90
2023-02-13T08:22:14.942Z,31.08
2023-02-13T08:24:42.048Z,29.85
2023-02-13T08:27:11.708Z,31.05
2023-02-13T08:29:38.528Z,30.23
2023-02-13T08:32:05.535Z,30.42
2023-02-13T08:34:32.538Z,28.20
2023-02-13T08:36:59.255Z,31.60
2023-02-13T08:39:26.162Z,32.20
2023-02-13T08:41:52.980Z,31.75
2023-02-13T08:44:19.714Z,31.48
2023-02-13T08:46:46.538Z,28.60
2023-02-13T08:49:13.868Z,30.25
2023-02-13T08:51:40.790Z,30.13
2023-02-13T08:54:07.692Z,28.98
2023-02-13T08:56:35.196Z,29.65
2023-02-13T08:59:01.945Z,31.08
2023-02-13T09:01:28.942Z,29.70
2023-02-13T09:03:55.821Z,29.10
2023-02-13T09:06:23.119Z,30.58
2023-02-13T09:08:49.912Z,28.70
2023-02-13T09:11:20.030Z,30.55
2023-02-13T09:13:48.432Z,30.20
2023-02-13T09:16:15.397Z,28.60
2023-02-13T09:18:42.441Z,30.50
2023-02-13T09:21:11.747Z,29.40
2023-02-13T09:23:40.153Z,28.88
2023-02-13T09:26:11.661Z,29.45
2023-02-13T09:28:39.163Z,29.08
2023-02-13T09:31:10.167Z,28.17
2023-02-13T09:33:37.676Z,27.85
2023-02-13T09:36:05.831Z,27.63
2023-02-13T09:38:32.818Z,27.60
2023-02-13T09:41:05.584Z,28.70
2023-02-13T09:43:44.959Z,26.75
2023-02-13T09:46:14.755Z,28.48
2023-02-13T09:48:42.660Z,27.75
2023-02-13T09:51:13.810Z,27.33
2023-02-13T09:53:43.722Z,26.45
2023-02-13T09:56:14.960Z,26.60
2023-02-13T09:58:49.027Z,25.98
2023-02-13T10:01:18.972Z,24.25
2023-02-13T10:03:51.385Z,24.27
2023-02-13T10:06:23.120Z,24.30
2023-02-13T10:08:52.991Z,25.45
2023-02-13T10:11:26.894Z,25.08
2023-02-13T10:13:56.656Z,23.80
2023-02-13T10:16:27.423Z,23.63
2023-02-13T10:19:02.245Z,23.38
2023-02-13T10:21:33.356Z,23.33
2023-02-13T10:24:05.166Z,21.77
2023-02-13T10:26:42.768Z,22.02
2023-02-13T10:29:33.737Z,20.35
2023-02-13T10:32:03.047Z,21.17
2023-02-13T10:34:32.904Z,20.38
2023-02-13T10:37:00.662Z,20.40
2023-02-13T10:39:28.832Z,22.17
2023-02-13T10:41:57.926Z,21.27
2023-02-13T10:44:32.986Z,21.98
2023-02-13T10:47:09.122Z,21.65
2023-02-13T10:49:47.043Z,23.23
2023-02-13T10:52:17.246Z,27.77
2023-02-13T10:55:03.207Z,25.80
2023-02-13T10:57:50.355Z,20.33
2023-02-13T11:00:23.027Z,21.85
2023-02-13T11:02:49.841Z,21.33
2023-02-13T11:05:33.647Z,20.58
2023-02-13T11:08:02.143Z,21.42
2023-02-13T11:10:29.395Z,22.00
2023-02-13T11:12:56.563Z,21.00
2023-02-13T11:15:28.192Z,19.75
2023-02-13T11:17:55.733Z,20.40
2023-02-13T11:20:28.796Z,20.40
2023-02-13T11:22:56.178Z,21.60
2023-02-13T11:25:26.674Z,19.85
2023-02-13T11:28:05.079Z,20.80
2023-02-13T11:30:34.276Z,18.02
2023-02-13T11:33:02.801Z,18.65
2023-02-13T11:35:38.840Z,19.42
2023-02-13T11:38:20.991Z,18.05
2023-02-13T11:40:50.419Z,17.80
2023-02-13T11:43:25.815Z,18.70
2023-02-13T11:46:02.394Z,19.88
2023-02-13T11:48:29.285Z,18.92
2023-02-13T11:50:56.825Z,18.27
2023-02-13T11:53:25.745Z,18.10
2023-02-13T11:56:01.923Z,17.33
2023-02-13T12:01:08.298Z,17.55
2023-02-13T12:03:35.260Z,19.88
2023-02-13T12:06:13.254Z,18.73
2023-02-13T12:08:40.885Z,23.52
2023-02-13T12:11:22.844Z,18.42
2023-02-13T12:13:50.544Z,21.10
2023-02-13T12:16:34.131Z,18.58
2023-02-13T12:19:03.996Z,19.20
2023-02-13T12:21:45.325Z,19.33
2023-02-13T12:24:27.455Z,17.17
2023-02-13T12:27:15.047Z,18.02
2023-02-13T12:30:00.591Z,16.73
2023-02-13T12:32:35.315Z,17.17
2023-02-13T12:35:21.942Z,19.13
2023-02-13T12:37:57.921Z,18.50
2023-02-13T12:42:51.637Z,18.65
2023-02-13T12:45:18.780Z,18.70
2023-02-13T12:47:59.129Z,17.63
2023-02-13T12:50:41.514Z,18.35
2023-02-13T12:53:08.454Z,18.88
2023-02-13T12:56:00.751Z,18.42
2023-02-13T12:58:27.676Z,18.80
2023-02-13T13:01:14.857Z,16.63
2023-02-13T13:04:00.684Z,17.15
2023-02-13T13:06:44.954Z,18.58
2023-02-13T13:09:30.972Z,18.73
2023-02-13T13:12:01.045Z,18.92
2023-02-13T13:14:37.312Z,17.95
2023-02-13T13:17:13.706Z,18.25
2023-02-13T13:19:50.602Z,17.23
2023-02-13T13:22:36.463Z,14.95
2023-02-13T13:25:19.049Z,18.33
2023-02-13T13:27:47.959Z,18.38
2023-02-13T13:30:17.981Z,18.95
2023-02-13T13:32:46.317Z,16.95
2023-02-13T13:35:16.822Z,16.67
2023-02-13T13:37:48.720Z,16.25
2023-02-13T13:40:29.319Z,16.35
2023-02-13T13:43:16.938Z,17.55
2023-02-13T13:45:59.128Z,16.98
2023-02-13T13:48:39.768Z,17.60
2023-02-13T13:51:07.882Z,16.75
2023-02-13T13:53:36.052Z,17.77
2023-02-13T13:56:05.833Z,17.02
2023-02-13T13:58:32.638Z,16.67
2023-02-13T14:01:21.208Z,16.63
2023-02-13T14:03:49.390Z,16.95
2023-02-13T14:06:39.828Z,16.23
2023-02-13T14:09:07.396Z,17.00
2023-02-13T14:11:41.945Z,15.75
2023-02-13T14:14:27.287Z,17.70
2023-02-13T14:17:15.146Z,17.17
2023-02-13T14:19:43.864Z,16.75
2023-02-13T14:22:20.022Z,16.77
2023-02-13T14:24:54.449Z,15.57
2023-02-13T14:27:31.938Z,16.52
2023-02-13T14:29:59.187Z,16.33
2023-02-13T14:32:33.740Z,15.73
2023-02-13T14:35:02.204Z,15.00
2023-02-13T14:37:35.943Z,15.02
2023-02-13T14:40:12.347Z,14.57
2023-02-13T14:42:40.415Z,15.45
2023-02-13T14:45:18.664Z,13.60
2023-02-13T14:47:53.434Z,13.82
2023-02-13T14:50:34.167Z,14.77
2023-02-13T14:53:03.500Z,13.35
2023-02-13T14:55:41.316Z,13.27
2023-02-13T14:58:12.868Z,13.48
2023-02-13T15:00:45.985Z,12.95
2023-02-13T15:03:25.496Z,14.18
2023-02-13T15:05:53.546Z,13.73
2023-02-13T15:08:26.152Z,13.63
2023-02-13T15:10:54.340Z,13.68
2023-02-13T15:13:41.532Z,12.98
2023-02-13T15:16:10.269Z,13.35
2023-02-13T15:18:42.554Z,15.30
2023-02-13T15:21:15.001Z,13.35
2023-02-13T15:23:42.112Z,13.88
2023-02-13T15:26:09.012Z,13.90
2023-02-13T15:28:36.406Z,13.38
2023-02-13T15:31:09.144Z,13.07
2023-02-13T15:33:46.886Z,12.02
2023-02-13T15:36:27.671Z,12.57
2023-02-13T15:39:03.998Z,13.80
2023-02-13T15:41:33.506Z,14.88
2023-02-13T15:44:00.709Z,14.23
2023-02-13T15:46:29.949Z,14.40
2023-02-13T15:49:01.688Z,13.75
2023-02-13T15:51:30.644Z,14.70
2023-02-13T15:54:02.035Z,14.65
2023-02-13T15:56:30.957Z,15.55
2023-02-13T15:58:58.942Z,15.77
2023-02-13T16:01:25.938Z,16.52
2023-02-13T16:03:56.779Z,14.95
2023-02-13T16:06:23.856Z,15.50
2023-02-13T16:08:55.477Z,15.65
2023-02-13T16:11:34.424Z,16.02
2023-02-13T16:14:21.580Z,15.63
2023-02-13T16:16:50.610Z,14.85
2023-02-13T16:19:22.470Z,15.68
2023-02-13T16:21:49.582Z,15.23
2023-02-13T16:24:17.043Z,15.70
2023-02-13T16:26:46.713Z,15.40
2023-02-13T16:29:18.260Z,16.10
2023-02-13T16:31:45.463Z,15.80
2023-02-13T16:34:31.115Z,15.82
2023-02-13T16:36:58.048Z,16.33
2023-02-13T16:39:30.220Z,16.90
2023-02-13T16:41:57.604Z,16.50
2023-02-13T16:44:24.450Z,15.93
2023-02-13T16:46:53.638Z,17.55
2023-02-13T16:49:22.209Z,17.58
2023-02-13T16:51:57.943Z,15.90
2023-02-13T16:54:33.333Z,16.75
2023-02-13T16:57:19.071Z,17.50
2023-02-13T16:59:49.337Z,18.05
2023-02-13T17:02:19.319Z,18.48
2023-02-13T17:04:48.151Z,18.58
2023-02-13T17:07:16.707Z,18.40
2023-02-13T17:09:43.941Z,18.75
2023-02-13T17:12:18.521Z,19.90
2023-02-13T17:14:45.960Z,19.38
2023-02-13T17:17:14.111Z,19.75
2023-02-13T17:19:41.451Z,19.95
2023-02-13T17:22:08.385Z,19.88
2023-02-13T17:24:35.973Z,19.10
2023-02-13T17:27:03.088Z,20.70
2023-02-13T17:29:30.127Z,21.20
2023-02-13T17:31:57.564Z,19.65
2023-02-13T17:34:24.629Z,20.17
2023-02-13T17:36:51.564Z,20.13
2023-02-13T17:39:18.425Z,18.75
2023-02-13T17:41:45.421Z,19.52
2023-02-13T17:44:12.979Z,20.00
2023-02-13T17:46:40.555Z,19.52
2023-02-13T17:49:07.956Z,20.67
2023-02-13T17:51:36.632Z,19.63
2023-02-13T17:54:03.933Z,19.73
2023-02-13T17:56:31.051Z,20.27
2023-02-13T17:58:58.076Z,20.48
2023-02-13T18:01:24.972Z,20.33
2023-02-13T18:03:51.918Z,20.38
2023-02-13T18:06:18.957Z,20.40
2023-02-13T18:08:45.729Z,19.80
2023-02-13T18:11:12.610Z,19.15
2023-02-13T18:13:44.039Z,19.83
2023-02-13T18:16:11.277Z,19.00
2023-02-13T18:18:38.179Z,21.42
2023-02-13T18:21:05.211Z,26.38
2023-02-13T18:23:32.245Z,23.92
2023-02-13T18:26:09.662Z,24.75
2023-02-13T18:28:37.923Z,22.13
2023-02-13T18:31:04.897Z,24.48
2023-02-13T18:33:31.777Z,24.35
2023-02-13T18:36:02.509Z,23.58
2023-02-13T18:38:29.571Z,22.60
2023-02-13T18:40:57.568Z,23.83
2023-02-13T18:43:24.580Z,21.52
2023-02-13T18:45:51.778Z,22.13
2023-02-13T18:48:18.867Z,22.30
2023-02-13T18:50:45.742Z,23.92
2023-02-13T18:53:12.788Z,23.40
2023-02-13T18:55:40.546Z,23.17
2023-02-13T18:58:07.803Z,25.20
2023-02-13T19:00:34.907Z,25.83
2023-02-13T19:03:02.388Z,24.67
2023-02-13T19:05:29.345Z,25.15
2023-02-13T19:07:56.355Z,24.90
2023-02-13T19:10:23.197Z,27.05
2023-02-13T19:12:50.079Z,27.88
2023-02-13T19:15:17.294Z,29.77
2023-02-13T19:17:45.425Z,27.25
2023-02-13T19:20:14.380Z,31.15
2023-02-13T19:22:45.279Z,27.95
2023-02-13T19:25:12.302Z,27.35
2023-02-13T19:27:39.337Z,27.88
2023-02-13T19:30:09.371Z,28.10
2023-02-13T19:32:36.884Z,29.77
2023-02-13T19:35:04.001Z,31.90
2023-02-13T19:37:43.020Z,30.15
2023-02-13T19:40:11.395Z,30.00
2023-02-13T19:42:40.232Z,30.80
2023-02-13T19:45:07.460Z,29.25
2023-02-13T19:47:34.502Z,29.92
2023-02-13T19:50:01.315Z,32.95
2023-02-13T19:52:28.287Z,29.77
2023-02-13T19:54:55.611Z,30.67
2023-02-13T19:57:22.382Z,29.60
2023-02-13T19:59:49.553Z,30.77
2023-02-13T20:02:17.546Z,29.20
2023-02-13T20:04:45.162Z,28.25
2023-02-13T20:07:11.920Z,29.75
2023-02-13T20:09:40.457Z,30.45
2023-02-13T20:12:07.794Z,28.95
2023-02-13T20:14:34.555Z,28.13
2023-02-13T20:17:01.531Z,29.23
2023-02-13T20:19:28.662Z,29.70
2023-02-13T20:21:56.039Z,28.95
2023-02-13T20:24:23.195Z,29.23
2023-02-13T20:26:50.580Z,28.52
2023-02-13T20:29:18.573Z,29.27
2023-02-13T20:31:45.647Z,29.42
2023-02-13T20:34:12.476Z,28.27
2023-02-13T20:36:39.700Z,28.63
2023-02-13T20:39:07.826Z,29.33
2023-02-13T20:41:35.802Z,28.77
2023-02-13T20:44:05.246Z,29.08
2023-02-13T20:46:32.942Z,28.63
2023-02-13T20:49:00.119Z,29.30
2023-02-13T20:51:27.398Z,28.48
2023-02-13T20:53:54.693Z,27.70
2023-02-13T20:56:23.648Z,29.60
2023-02-13T20:58:51.838Z,28.75
2023-02-13T21:01:19.315Z,30.40
2023-02-13T21:03:51.072Z,29.33
2023-02-13T21:06:18.119Z,30.42
2023-02-13T21:08:45.194Z,28.83
2023-02-13T21:11:12.082Z,27.75
2023-02-13T21:13:40.208Z,28.42
2023-02-13T21:16:09.022Z,29.52
2023-02-13T21:18:36.909Z,28.10
2023-02-13T21:21:03.733Z,29.05
2023-02-13T21:23:30.888Z,30.10
2023-02-13T21:26:01.304Z,29.13
2023-02-13T21:28:28.381Z,27.40
2023-02-13T21:30:57.075Z,28.73
2023-02-13T21:33:24.569Z,28.45
2023-02-13T21:35:59.532Z,27.67
2023-02-13T21:38:26.629Z,28.20
2023-02-13T21:40:53.674Z,28.80
2023-02-13T21:43:22.124Z,28.75
2023-02-13T21:45:49.255Z,27.33
2023-02-13T21:48:16.470Z,31.50
2023-02-13T21:50:43.736Z,33.30
2023-02-13T21:53:10.914Z,32.00
2023-02-13T21:55:37.925Z,31.60
2023-02-13T21:58:04.937Z,33.13
2023-02-13T22:00:32.109Z,31.58
2023-02-13T22:02:58.965Z,29.15
2023-02-13T22:05:26.189Z,27.98
2023-02-13T22:08:11.821Z,30.58
2023-02-13T22:10:39.686Z,28.77
2023-02-13T22:13:06.557Z,28.80
2023-02-13T22:15:33.481Z,30.08
2023-02-13T22:18:00.442Z,26.45
2023-02-13T22:20:27.516Z,27.50
2023-02-13T22:22:54.281Z,29.63
2023-02-13T22:25:21.072Z,30.00
2023-02-13T22:27:48.805Z,28.02
2023-02-13T22:30:15.952Z,29.98
2023-02-13T22:32:45.977Z,27.92
2023-02-13T22:35:12.976Z,29.15
2023-02-13T22:37:40.336Z,29.58
2023-02-13T22:40:07.400Z,29.92
2023-02-13T22:42:34.416Z,28.55
2023-02-13T22:45:01.265Z,26.83
2023-02-13T22:47:30.035Z,27.40
2023-02-13T22:49:57.127Z,29.30
2023-02-13T22:52:24.087Z,27.27
2023-02-13T22:54:51.042Z,29.15
2023-02-13T22:57:17.878Z,29.90
2023-02-13T22:59:45.169Z,29.63
2023-02-13T23:02:12.265Z,28.50
2023-02-13T23:04:39.478Z,27.40
2023-02-13T23:07:06.438Z,27.67
2023-02-13T23:09:33.509Z,28.20
2023-02-13T23:12:19.113Z,28.92
2023-02-13T23:14:46.412Z,26.50
2023-02-13T23:17:32.397Z,27.73
2023-02-13T23:19:59.550Z,26.15
2023-02-13T23:22:26.496Z,26.98
2023-02-13T23:24:53.245Z,27.08
2023-02-13T23:27:20.194Z,26.20
2023-02-13T23:29:47.080Z,27.55
2023-02-13T23:32:14.377Z,26.52
2023-02-13T23:34:41.692Z,26.90
2023-02-13T23:37:08.665Z,26.42
2023-02-13T23:39:35.697Z,27.05
2023-02-13T23:42:02.875Z,26.23
2023-02-13T23:44:29.850Z,24.98
2023-02-13T23:46:56.727Z,24.92
2023-02-13T23:49:23.814Z,26.00
2023-02-13T23:51:50.697Z,24.38
2023-02-13T23:54:18.947Z,24.27
2023-02-13T23:56:46.089Z,24.10
2023-02-13T23:59:12.987Z,24.63
